Hlavní strana
METAR-TAF:

METAR-TAF

Letiště :

Mountain Empire Airport

Marion / Wytheville, Virginie, Spojené státy americké

zeměpisná šířka: 36-54N, zeměpisná délka: 081-21W, výška: 780 m

Aktuální stav počasí

Zpráva byla vytvořena před 14 minutami, v 09:55 UTC
Západní vítr 3 kt
Teplota 9°C
Vlhkost vzduchu 93%
Tlak 1020 hPa
Viditelnost: 16.1 km
Jasno

METAR: KMKJ 060955Z AUTO 27003KT 10SM CLR 09/08 A3012 RMK AO2 T00870078

Čas: 06:09 (10:09 UTC)


TAF: chybějící

Stav a předpovědi počasí z více než 4 000 letišť (zprávy METAR a TAF).

Červené a žluté tečky na mapě představují dostupné meteorologické stanice.

Když kurzor umístíte na tečku, zobrazí se název stanice.

Pak kliknutím zobrazíte stav a předpověď počasí.

Chcete-li změnit mapu, kliknutím na zelené tlačítko se znaménkem +mapu přiblížíte, kliknutím na zelené tlačítko se znaménkem – mapu oddálíte a kliknutím na zelené šipky přejdete na sousední mapy.


METAR-TAF: